Time;durP1;ratioP1;P1;durP2;ratioP2;P2;SDS_P1;SDS_P2;PMS_P1;PMS_P2;Temp;Humidity;BMP_temperature;BMP_pressure;BME280_temperature;BME280_humidity;BME280_pressure;Samples;Min_cycle;Max_cycle;Signal;HPM_P1;HPM_P2
2023/11/09 00:01:06;;;;;;;4.45;3.80;;;;;;;;;;10498834;28;20378;-73
2023/11/09 00:06:07;;;;;;;5.57;3.67;;;;;;;;;;10498652;28;20088;-73
2023/11/09 00:11:07;;;;;;;5.00;3.60;;;;;;;;;;10506056;28;20266;-74
2023/11/09 00:16:11;;;;;;;5.40;3.65;;;;;;;;;;10505841;28;20031;-74
2023/11/09 00:21:11;;;;;;;6.43;4.53;;;;;;;;;;10505396;28;20028;-73
2023/11/09 00:26:11;;;;;;;5.95;4.20;;;;;;;;;;10487423;28;20055;-74
2023/11/09 00:31:12;;;;;;;6.03;4.13;;;;;;;;;;10504771;28;20253;-74
2023/11/09 00:36:12;;;;;;;5.93;4.20;;;;;;;;;;10504992;28;20338;-74
2023/11/09 00:41:14;;;;;;;6.18;3.85;;;;;;;;;;10505427;28;20576;-73
2023/11/09 00:46:15;;;;;;;6.78;4.32;;;;;;;;;;10486967;28;20031;-74
2023/11/09 00:51:15;;;;;;;7.73;4.33;;;;;;;;;;10504477;28;20219;-73
2023/11/09 00:56:15;;;;;;;6.20;4.28;;;;;;;;;;10474037;28;20029;-74
2023/11/09 01:01:15;;;;;;;7.23;3.90;;;;;;;;;;10492246;28;20035;-72
2023/11/09 01:06:16;;;;;;;6.30;3.77;;;;;;;;;;10503674;28;20580;-73
2023/11/09 01:11:26;;;;;;;6.28;4.68;;;;;;;;;;10503725;28;20012;-73
2023/11/09 01:16:26;;;;;;;5.78;4.68;;;;;;;;;;10503463;28;20027;-72
2023/11/09 01:21:26;;;;;;;7.15;4.40;;;;;;;;;;10502311;28;20353;-73
2023/11/09 01:26:26;;;;;;;5.70;4.53;;;;;;;;;;10503400;28;20326;-73
2023/11/09 01:31:27;;;;;;;8.63;5.00;;;;;;;;;;10503533;28;20031;-73
2023/11/09 01:36:28;;;;;;;7.85;5.63;;;;;;;;;;10503182;28;20043;-73
2023/11/09 01:41:28;;;;;;;7.78;5.55;;;;;;;;;;10484794;28;20060;-73
2023/11/09 01:46:29;;;;;;;9.60;6.05;;;;;;;;;;10502817;28;20095;-72
2023/11/09 01:51:30;;;;;;;8.23;5.72;;;;;;;;;;10502809;28;20188;-73
2023/11/09 01:56:31;;;;;;;7.80;5.10;;;;;;;;;;10502145;28;20028;-73
2023/11/09 02:01:33;;;;;;;8.55;5.65;;;;;;;;;;10501591;28;20056;-73
2023/11/09 02:06:34;;;;;;;10.63;5.45;;;;;;;;;;10502244;28;20020;-73
2023/11/09 02:11:34;;;;;;;7.88;5.95;;;;;;;;;;10501196;28;20032;-74
2023/11/09 02:16:34;;;;;;;7.18;5.65;;;;;;;;;;10501303;28;20040;-73
2023/11/09 02:21:36;;;;;;;10.10;6.00;;;;;;;;;;10483452;28;20360;-73
2023/11/09 02:26:37;;;;;;;8.55;5.65;;;;;;;;;;10483409;28;20271;-72
2023/11/09 02:31:37;;;;;;;8.65;6.05;;;;;;;;;;10500670;28;20035;-73
2023/11/09 02:36:38;;;;;;;9.10;5.68;;;;;;;;;;10500998;28;20024;-73
2023/11/09 02:41:38;;;;;;;7.85;5.50;;;;;;;;;;10500314;28;20044;-74
2023/11/09 02:46:39;;;;;;;7.87;5.80;;;;;;;;;;10482831;28;20028;-73
2023/11/09 02:51:39;;;;;;;7.30;5.57;;;;;;;;;;10500470;28;20012;-74
2023/11/09 02:56:40;;;;;;;6.05;5.07;;;;;;;;;;10500704;28;20043;-74
2023/11/09 03:01:40;;;;;;;8.93;5.55;;;;;;;;;;10500068;28;20079;-73
2023/11/09 03:06:40;;;;;;;6.55;4.97;;;;;;;;;;10500230;28;20067;-73
2023/11/09 03:11:41;;;;;;;8.93;5.78;;;;;;;;;;10499632;28;20091;-73
2023/11/09 03:16:42;;;;;;;8.50;5.90;;;;;;;;;;10499625;28;20035;-74
2023/11/09 03:21:42;;;;;;;8.55;5.57;;;;;;;;;;10499896;28;20024;-74
2023/11/09 03:26:42;;;;;;;6.60;5.07;;;;;;;;;;10499589;28;20024;-74
2023/11/09 03:31:43;;;;;;;8.20;6.13;;;;;;;;;;10499098;28;20107;-73
2023/11/09 03:36:43;;;;;;;13.40;7.43;;;;;;;;;;10499466;28;20322;-73
2023/11/09 03:41:46;;;;;;;11.07;6.77;;;;;;;;;;10501689;28;20074;-74
2023/11/09 03:46:49;;;;;;;8.07;6.18;;;;;;;;;;10513295;28;20033;-72
2023/11/09 03:51:49;;;;;;;10.95;8.10;;;;;;;;;;10489435;28;20028;-72
2023/11/09 03:56:49;;;;;;;11.20;7.68;;;;;;;;;;10507322;28;20028;-71
2023/11/09 04:01:49;;;;;;;13.77;8.45;;;;;;;;;;10506518;28;20255;-72
2023/11/09 04:06:50;;;;;;;11.67;8.03;;;;;;;;;;10506919;28;20020;-70
2023/11/09 04:11:50;;;;;;;15.53;10.10;;;;;;;;;;10506582;28;20032;-70
2023/11/09 04:16:50;;;;;;;14.75;9.60;;;;;;;;;;10507151;28;20281;-70
2023/11/09 04:21:52;;;;;;;18.87;8.60;;;;;;;;;;10499856;28;20021;-70
2023/11/09 04:26:53;;;;;;;15.55;10.25;;;;;;;;;;10486300;28;20258;-69
2023/11/09 04:31:55;;;;;;;16.17;9.98;;;;;;;;;;10505071;28;20048;-68
2023/11/09 04:36:55;;;;;;;14.45;9.88;;;;;;;;;;10505758;28;20088;-70
2023/11/09 04:41:59;;;;;;;19.40;11.57;;;;;;;;;;10505270;28;20029;-70
2023/11/09 04:47:03;;;;;;;13.27;8.02;;;;;;;;;;10504896;28;20063;-70
2023/11/09 04:52:05;;;;;;;12.57;8.35;;;;;;;;;;10504981;28;20025;-70
2023/11/09 04:58:44;;;;;;;17.52;9.15;;;;;;;;;;10503462;28;20035;-70
2023/11/09 05:07:44;;;;;;;16.70;8.93;;;;;;;;;;10504213;28;20012;-70
2023/11/09 05:12:44;;;;;;;15.95;8.48;;;;;;;;;;10504223;28;20028;-69
2023/11/09 05:17:45;;;;;;;21.55;9.93;;;;;;;;;;10503710;28;20268;-70
2023/11/09 05:22:45;;;;;;;18.20;9.93;;;;;;;;;;10503539;28;20028;-70
2023/11/09 05:27:46;;;;;;;14.80;9.37;;;;;;;;;;10498447;28;20013;-71
2023/11/09 05:32:46;;;;;;;16.73;8.77;;;;;;;;;;10484251;28;20636;-71
2023/11/09 05:37:47;;;;;;;17.20;9.07;;;;;;;;;;10502827;28;20024;-70
2023/11/09 05:42:47;;;;;;;27.80;9.23;;;;;;;;;;10502232;28;20405;-71
2023/11/09 05:47:47;;;;;;;26.77;11.15;;;;;;;;;;10502257;28;20020;-70
2023/11/09 05:52:47;;;;;;;15.18;8.35;;;;;;;;;;10501691;28;20257;-70
2023/11/09 05:57:48;;;;;;;13.63;9.13;;;;;;;;;;10502106;28;20028;-70
2023/11/09 06:02:48;;;;;;;15.40;8.55;;;;;;;;;;10501682;28;20227;-71
2023/11/09 06:07:48;;;;;;;13.93;8.57;;;;;;;;;;10500859;28;20298;-71
2023/11/09 06:12:50;;;;;;;14.20;8.90;;;;;;;;;;10501799;28;20028;-70
2023/11/09 06:17:50;;;;;;;16.92;9.15;;;;;;;;;;10501001;28;20592;-71
2023/11/09 06:22:53;;;;;;;19.53;9.83;;;;;;;;;;10500408;28;20237;-71
2023/11/09 06:27:53;;;;;;;18.65;8.73;;;;;;;;;;10501013;28;20039;-71
2023/11/09 06:32:53;;;;;;;21.15;9.60;;;;;;;;;;10500936;28;20059;-71
2023/11/09 06:37:54;;;;;;;17.08;11.35;;;;;;;;;;10500029;28;20080;-71
2023/11/09 06:42:54;;;;;;;24.90;10.93;;;;;;;;;;10500034;28;20113;-70
2023/11/09 06:47:54;;;;;;;18.27;9.05;;;;;;;;;;10499967;28;20242;-70
2023/11/09 06:52:56;;;;;;;12.85;8.70;;;;;;;;;;10500413;28;20057;-71
2023/11/09 06:57:56;;;;;;;15.23;8.03;;;;;;;;;;10500085;28;20321;-70
2023/11/09 07:02:58;;;;;;;16.63;8.80;;;;;;;;;;10499793;28;20024;-71
2023/11/09 07:07:58;;;;;;;18.17;9.93;;;;;;;;;;10500359;28;20310;-70
2023/11/09 07:12:59;;;;;;;27.27;12.00;;;;;;;;;;10499653;28;20036;-72
2023/11/09 07:18:03;;;;;;;17.63;10.93;;;;;;;;;;10499139;28;20043;-70
2023/11/09 07:23:06;;;;;;;19.15;12.95;;;;;;;;;;10499577;28;20040;-71
2023/11/09 07:28:08;;;;;;;20.42;12.60;;;;;;;;;;10499598;28;20032;-70
2023/11/09 07:33:08;;;;;;;24.83;15.00;;;;;;;;;;10499206;28;20231;-71
2023/11/09 07:38:08;;;;;;;22.97;12.63;;;;;;;;;;10499170;28;20036;-70
2023/11/09 07:43:10;;;;;;;22.40;12.30;;;;;;;;;;10499366;28;20036;-70
2023/11/09 07:48:10;;;;;;;16.27;10.77;;;;;;;;;;10499586;28;20020;-70
2023/11/09 07:53:11;;;;;;;21.00;12.50;;;;;;;;;;10499285;28;20088;-71
2023/11/09 07:58:12;;;;;;;15.75;10.73;;;;;;;;;;10499366;28;20263;-71
2023/11/09 08:03:14;;;;;;;21.80;10.43;;;;;;;;;;10504139;28;20032;-71
2023/11/09 08:08:16;;;;;;;15.60;8.85;;;;;;;;;;10498604;28;20191;-71
2023/11/09 08:13:16;;;;;;;17.08;9.20;;;;;;;;;;10481132;28;20024;-71
2023/11/09 08:18:16;;;;;;;10.87;8.70;;;;;;;;;;10499101;28;20024;-72
2023/11/09 08:23:17;;;;;;;26.63;11.57;;;;;;;;;;10497822;28;20188;-71
2023/11/09 08:28:17;;;;;;;17.50;11.00;;;;;;;;;;10501068;28;20048;-71
2023/11/09 08:33:21;;;;;;;17.67;10.93;;;;;;;;;;10505836;28;20043;-71
2023/11/09 08:38:22;;;;;;;17.63;9.75;;;;;;;;;;10505249;28;20036;-72
2023/11/09 08:43:22;;;;;;;22.45;10.82;;;;;;;;;;10504965;28;20099;-71
2023/11/09 08:48:24;;;;;;;14.75;9.30;;;;;;;;;;10505580;28;20024;-71
2023/11/09 08:53:24;;;;;;;11.10;8.82;;;;;;;;;;10487126;28;20032;-71
2023/11/09 08:58:25;;;;;;;15.57;8.82;;;;;;;;;;10505183;28;20077;-71
2023/11/09 09:03:25;;;;;;;18.00;9.48;;;;;;;;;;10504823;28;20349;-71
2023/11/09 09:08:26;;;;;;;15.57;8.55;;;;;;;;;;10504371;28;20087;-71
2023/11/09 09:13:27;;;;;;;12.00;7.95;;;;;;;;;;10504435;28;20329;-71
2023/11/09 09:18:27;;;;;;;13.40;8.57;;;;;;;;;;10504047;28;20226;-71
2023/11/09 09:23:27;;;;;;;13.95;8.63;;;;;;;;;;10504683;28;20032;-71
2023/11/09 09:28:28;;;;;;;18.03;8.27;;;;;;;;;;10504079;28;20353;-72
2023/11/09 09:33:28;;;;;;;15.37;7.93;;;;;;;;;;10503268;28;20342;-71
2023/11/09 09:38:30;;;;;;;13.48;8.07;;;;;;;;;;10502820;28;20036;-71
2023/11/09 09:43:33;;;;;;;12.32;7.28;;;;;;;;;;10484394;28;20039;-71
2023/11/09 09:48:33;;;;;;;14.50;7.72;;;;;;;;;;10502881;28;20021;-72
2023/11/09 09:53:34;;;;;;;11.93;7.10;;;;;;;;;;10502398;28;20215;-72
2023/11/09 09:58:35;;;;;;;10.32;6.60;;;;;;;;;;10502189;28;20055;-71
2023/11/09 10:03:37;;;;;;;16.50;7.72;;;;;;;;;;10502146;28;20078;-72
2023/11/09 10:08:37;;;;;;;13.57;7.75;;;;;;;;;;10501587;28;20037;-72
2023/11/09 10:13:42;;;;;;;12.85;7.63;;;;;;;;;;10501534;28;20459;-71
2023/11/09 10:18:42;;;;;;;11.38;6.85;;;;;;;;;;10502211;28;20029;-72
2023/11/09 10:23:51;;;;;;;11.10;6.05;;;;;;;;;;10500690;28;20218;-72
2023/11/09 10:28:55;;;;;;;8.38;4.82;;;;;;;;;;10501283;28;20377;-72
2023/11/09 10:33:55;;;;;;;11.57;5.18;;;;;;;;;;10500197;28;20036;-73
2023/11/09 10:38:55;;;;;;;7.97;4.60;;;;;;;;;;10500631;28;20077;-72
2023/11/09 10:43:59;;;;;;;8.48;4.22;;;;;;;;;;10500365;28;20028;-72
2023/11/09 10:48:59;;;;;;;5.95;4.28;;;;;;;;;;10492597;28;20028;-72
2023/11/09 10:54:03;;;;;;;15.17;5.07;;;;;;;;;;10500382;28;20051;-72
2023/11/09 10:59:05;;;;;;;8.93;4.28;;;;;;;;;;10500041;28;20345;-72
2023/11/09 11:04:08;;;;;;;8.85;4.35;;;;;;;;;;10500300;28;20039;-73
2023/11/09 11:09:18;;;;;;;7.93;4.38;;;;;;;;;;10499452;28;20525;-71
2023/11/09 11:14:19;;;;;;;6.60;3.80;;;;;;;;;;10499792;28;20025;-71
2023/11/09 11:19:33;;;;;;;9.05;4.20;;;;;;;;;;10499495;28;20024;-72
2023/11/09 11:24:46;;;;;;;5.75;4.50;;;;;;;;;;10499223;28;20327;-71
2023/11/09 11:29:47;;;;;;;8.75;5.38;;;;;;;;;;10499576;28;20381;-71
2023/11/09 11:34:55;;;;;;;12.50;5.60;;;;;;;;;;10498913;28;20227;-71
2023/11/09 11:39:55;;;;;;;8.18;6.18;;;;;;;;;;10499465;28;20028;-71
2023/11/09 11:44:59;;;;;;;9.10;6.25;;;;;;;;;;10498799;28;20036;-71
2023/11/09 11:50:04;;;;;;;14.05;6.90;;;;;;;;;;10499391;28;20471;-71
2023/11/09 11:55:10;;;;;;;17.80;7.03;;;;;;;;;;10502489;28;20096;-72
2023/11/09 12:00:10;;;;;;;13.77;7.43;;;;;;;;;;10505350;28;20016;-71
2023/11/09 12:05:10;;;;;;;18.73;8.18;;;;;;;;;;10503492;28;20370;-71
2023/11/09 12:10:21;;;;;;;15.53;8.13;;;;;;;;;;10506668;28;20020;-70
2023/11/09 12:15:28;;;;;;;12.30;6.25;;;;;;;;;;10506384;28;20020;-71
2023/11/09 12:20:31;;;;;;;13.23;7.70;;;;;;;;;;10506858;28;20078;-70
2023/11/09 12:25:47;;;;;;;18.73;8.38;;;;;;;;;;10487699;28;20299;-71
2023/11/09 12:30:48;;;;;;;16.98;6.68;;;;;;;;;;10505481;28;20048;-71
2023/11/09 12:36:02;;;;;;;9.02;6.30;;;;;;;;;;10505604;28;20036;-72
2023/11/09 12:41:03;;;;;;;10.93;6.18;;;;;;;;;;10507963;28;20033;-71
2023/11/09 12:46:15;;;;;;;14.77;6.47;;;;;;;;;;10505347;28;20024;-71
2023/11/09 12:51:17;;;;;;;12.27;6.38;;;;;;;;;;10505099;28;20025;-70
2023/11/09 12:56:20;;;;;;;11.05;6.18;;;;;;;;;;10504739;28;20215;-70
2023/11/09 13:01:22;;;;;;;13.27;6.10;;;;;;;;;;10504769;28;20058;-71
2023/11/09 13:06:23;;;;;;;9.63;6.38;;;;;;;;;;10504376;28;20162;-71
2023/11/09 13:11:40;;;;;;;9.48;5.57;;;;;;;;;;10503921;28;20070;-70
2023/11/09 13:16:41;;;;;;;9.00;5.28;;;;;;;;;;10502951;28;20016;-72
2023/11/09 13:21:41;;;;;;;8.90;4.60;;;;;;;;;;10503878;28;20063;-70
2023/11/09 13:26:41;;;;;;;10.52;5.47;;;;;;;;;;10503186;28;20056;-70
2023/11/09 13:31:41;;;;;;;13.07;5.32;;;;;;;;;;10503248;28;20048;-71
2023/11/09 13:36:54;;;;;;;9.07;4.40;;;;;;;;;;10503077;28;20347;-70
2023/11/09 13:42:00;;;;;;;8.77;4.28;;;;;;;;;;10502897;28;20475;-70
2023/11/09 13:47:00;;;;;;;8.55;4.57;;;;;;;;;;10493473;28;20476;-70
2023/11/09 13:57:18;;;;;;;16.98;5.25;;;;;;;;;;10502303;28;20039;-70
2023/11/09 14:02:19;;;;;;;6.10;4.10;;;;;;;;;;10501673;28;20099;-71
2023/11/09 14:07:27;;;;;;;8.90;3.70;;;;;;;;;;10501968;28;20222;-71
2023/11/09 14:12:37;;;;;;;10.60;3.72;;;;;;;;;;10502460;28;20356;-71
2023/11/09 14:17:38;;;;;;;8.73;3.30;;;;;;;;;;10501686;28;20021;-71
2023/11/09 14:22:38;;;;;;;7.18;3.20;;;;;;;;;;10493729;28;20048;-70
2023/11/09 14:27:39;;;;;;;4.55;3.22;;;;;;;;;;10500412;28;20020;-71
2023/11/09 14:32:39;;;;;;;6.35;3.38;;;;;;;;;;10500632;28;20230;-71
2023/11/09 14:37:40;;;;;;;6.03;2.70;;;;;;;;;;10500876;28;20036;-71
2023/11/09 14:42:40;;;;;;;9.00;4.38;;;;;;;;;;10500235;28;20029;-70
2023/11/09 14:47:43;;;;;;;6.47;4.10;;;;;;;;;;10501099;28;20016;-70
2023/11/09 14:58:10;;;;;;;;;;;;;;;;;;10490670;28;20331;-70
2023/11/09 15:03:18;;;;;;;11.40;5.45;;;;;;;;;;10497826;28;19923;-71
2023/11/09 15:08:23;;;;;;;10.88;4.32;;;;;;;;;;10497655;28;20298;-70
2023/11/09 15:13:24;;;;;;;12.60;4.82;;;;;;;;;;10497506;28;20035;-69
2023/11/09 15:18:25;;;;;;;8.75;3.67;;;;;;;;;;10497191;28;20024;-71
2023/11/09 15:23:26;;;;;;;9.18;4.20;;;;;;;;;;10497961;28;20459;-72
2023/11/09 15:28:26;;;;;;;13.05;5.22;;;;;;;;;;10497442;28;20257;-70
2023/11/09 15:33:27;;;;;;;19.60;6.47;;;;;;;;;;10496857;28;20119;-71
2023/11/09 15:38:27;;;;;;;17.15;6.20;;;;;;;;;;10499571;28;20040;-70
2023/11/09 15:43:36;;;;;;;21.10;6.47;;;;;;;;;;10487651;28;20316;-70
2023/11/09 15:48:37;;;;;;;17.25;8.55;;;;;;;;;;10505140;28;20020;-70
2023/11/09 15:53:37;;;;;;;19.30;8.63;;;;;;;;;;10505145;28;20032;-71
2023/11/09 15:58:38;;;;;;;21.27;9.27;;;;;;;;;;10504703;28;20032;-72
2023/11/09 16:03:39;;;;;;;23.23;10.35;;;;;;;;;;10504335;28;20329;-72
2023/11/09 16:08:40;;;;;;;19.30;9.70;;;;;;;;;;10504709;28;20314;-70
2023/11/09 16:13:41;;;;;;;22.55;10.23;;;;;;;;;;10502614;28;20028;-71
2023/11/09 16:18:41;;;;;;;22.60;10.00;;;;;;;;;;10504081;28;20234;-71
2023/11/09 16:23:41;;;;;;;25.07;11.20;;;;;;;;;;10504299;28;20169;-71
2023/11/09 16:28:47;;;;;;;19.83;8.82;;;;;;;;;;10503898;28;20384;-71
2023/11/09 16:33:48;;;;;;;19.27;9.63;;;;;;;;;;10503873;28;20048;-71
2023/11/09 16:38:48;;;;;;;30.08;10.18;;;;;;;;;;10503820;28;20112;-71
2023/11/09 16:43:48;;;;;;;24.80;9.13;;;;;;;;;;10503290;28;20033;-74
2023/11/09 16:48:49;;;;;;;13.52;7.05;;;;;;;;;;10503262;28;20024;-74
2023/11/09 16:53:49;;;;;;;16.17;5.65;;;;;;;;;;10503655;28;20091;-74
2023/11/09 16:58:50;;;;;;;11.00;5.33;;;;;;;;;;10502854;28;20036;-74
2023/11/09 17:03:50;;;;;;;14.88;7.57;;;;;;;;;;10502825;28;20059;-74
2023/11/09 17:08:51;;;;;;;11.05;5.90;;;;;;;;;;10483121;28;20032;-73
2023/11/09 17:13:51;;;;;;;7.53;4.18;;;;;;;;;;10476544;28;20549;-74
2023/11/09 17:18:53;;;;;;;10.30;4.95;;;;;;;;;;10475853;28;20039;-75
2023/11/09 17:23:54;;;;;;;11.02;5.57;;;;;;;;;;10478984;28;20104;-75
2023/11/09 17:28:54;;;;;;;8.60;4.70;;;;;;;;;;10479860;28;20025;-75
2023/11/09 17:33:55;;;;;;;8.03;4.30;;;;;;;;;;10479300;28;20071;-75
2023/11/09 17:38:55;;;;;;;11.00;5.10;;;;;;;;;;10477734;28;20381;-75
2023/11/09 17:43:55;;;;;;;10.52;5.28;;;;;;;;;;10472856;28;20071;-75
2023/11/09 17:48:56;;;;;;;10.07;4.75;;;;;;;;;;10483725;28;20031;-75
2023/11/09 17:53:56;;;;;;;12.48;5.50;;;;;;;;;;10463455;28;20349;-75
2023/11/09 17:58:57;;;;;;;16.02;5.63;;;;;;;;;;10474062;28;20063;-75
2023/11/09 18:03:58;;;;;;;18.08;5.53;;;;;;;;;;10475987;28;20040;-75
2023/11/09 18:08:59;;;;;;;17.70;5.53;;;;;;;;;;10474826;28;20311;-75
2023/11/09 18:14:04;;;;;;;14.93;5.22;;;;;;;;;;10478335;28;20052;-76
2023/11/09 18:19:05;;;;;;;6.93;4.55;;;;;;;;;;10479057;28;20058;-74
2023/11/09 18:24:06;;;;;;;17.92;6.55;;;;;;;;;;10459478;28;20045;-71
2023/11/09 18:29:07;;;;;;;10.13;4.65;;;;;;;;;;10475179;28;20047;-74
2023/11/09 18:34:10;;;;;;;6.22;3.53;;;;;;;;;;10477343;28;20043;-79
2023/11/09 18:39:11;;;;;;;10.63;4.20;;;;;;;;;;10483875;28;20032;-75
2023/11/09 18:44:12;;;;;;;7.72;4.32;;;;;;;;;;10468227;28;20104;-76
2023/11/09 18:49:13;;;;;;;5.90;3.10;;;;;;;;;;10459103;28;20025;-70
2023/11/09 18:54:13;;;;;;;5.55;3.60;;;;;;;;;;10461363;28;20035;-71
2023/11/09 18:59:13;;;;;;;6.15;3.78;;;;;;;;;;10471801;28;20033;-70
2023/11/09 19:04:16;;;;;;;11.20;4.20;;;;;;;;;;10472165;28;20258;-70
2023/11/09 19:09:20;;;;;;;5.35;3.83;;;;;;;;;;10474219;28;20117;-71
2023/11/09 19:14:21;;;;;;;5.85;3.78;;;;;;;;;;10472623;28;20110;-69
2023/11/09 19:19:21;;;;;;;6.13;4.50;;;;;;;;;;10473728;28;20078;-72
2023/11/09 19:24:22;;;;;;;3.50;2.95;;;;;;;;;;10471727;28;20045;-70
2023/11/09 19:29:22;;;;;;;10.27;3.55;;;;;;;;;;10460276;28;20111;-72
2023/11/09 19:34:23;;;;;;;8.75;4.20;;;;;;;;;;10467379;28;21854;-70
2023/11/09 19:39:24;;;;;;;7.65;4.40;;;;;;;;;;10482409;28;20406;-70
2023/11/09 19:44:24;;;;;;;12.10;3.97;;;;;;;;;;10467938;28;20094;-70
2023/11/09 19:49:24;;;;;;;8.50;4.15;;;;;;;;;;10474069;28;20196;-69
2023/11/09 19:54:24;;;;;;;5.18;3.22;;;;;;;;;;10476592;28;20052;-70
2023/11/09 19:59:25;;;;;;;5.18;3.20;;;;;;;;;;10468635;28;20068;-72
2023/11/09 20:04:27;;;;;;;6.00;3.72;;;;;;;;;;10462034;28;20351;-70
2023/11/09 20:09:27;;;;;;;11.57;3.70;;;;;;;;;;10475123;28;20091;-71
2023/11/09 20:14:28;;;;;;;11.87;4.13;;;;;;;;;;10468919;28;20063;-72
2023/11/09 20:19:28;;;;;;;9.10;4.43;;;;;;;;;;10468320;28;20263;-71
2023/11/09 20:24:29;;;;;;;7.63;4.43;;;;;;;;;;10457610;28;20041;-75
2023/11/09 20:29:29;;;;;;;5.75;4.03;;;;;;;;;;10474916;28;20083;-75
2023/11/09 20:34:30;;;;;;;7.32;4.07;;;;;;;;;;10479360;28;20055;-73
2023/11/09 20:39:37;;;;;;;6.80;3.85;;;;;;;;;;10474419;28;20032;-71
2023/11/09 20:44:38;;;;;;;6.63;4.25;;;;;;;;;;10478743;28;20055;-70
2023/11/09 20:49:39;;;;;;;9.52;4.78;;;;;;;;;;10484457;28;20036;-71
2023/11/09 20:54:40;;;;;;;7.72;4.28;;;;;;;;;;10477447;28;20425;-71
2023/11/09 20:59:50;;;;;;;8.18;3.78;;;;;;;;;;10474387;28;20032;-69
2023/11/09 21:04:50;;;;;;;9.52;3.92;;;;;;;;;;10473146;28;20040;-72
2023/11/09 21:09:50;;;;;;;7.50;3.75;;;;;;;;;;10485358;28;20043;-73
2023/11/09 21:14:50;;;;;;;6.90;4.20;;;;;;;;;;10485384;28;20028;-72
2023/11/09 21:19:51;;;;;;;6.50;4.00;;;;;;;;;;10485517;28;20028;-75
2023/11/09 21:24:53;;;;;;;7.80;4.28;;;;;;;;;;10463271;28;20029;-74
2023/11/09 21:29:53;;;;;;;6.40;3.97;;;;;;;;;;10474215;28;20052;-74
2023/11/09 21:34:55;;;;;;;7.63;4.38;;;;;;;;;;10499083;28;20052;-70
2023/11/09 21:39:55;;;;;;;7.38;4.50;;;;;;;;;;10491174;28;20036;-71
2023/11/09 21:44:55;;;;;;;10.27;4.32;;;;;;;;;;10502758;28;20024;-72
2023/11/09 21:49:57;;;;;;;6.93;4.30;;;;;;;;;;10503164;28;20270;-71
2023/11/09 21:54:57;;;;;;;10.05;4.35;;;;;;;;;;10516366;28;20032;-73
2023/11/09 21:59:57;;;;;;;10.82;4.65;;;;;;;;;;10502450;28;20385;-71
2023/11/09 22:04:58;;;;;;;8.48;4.68;;;;;;;;;;10475216;28;20222;-71
2023/11/09 22:10:00;;;;;;;8.07;4.50;;;;;;;;;;10490004;28;20069;-70
2023/11/09 22:15:00;;;;;;;7.50;4.32;;;;;;;;;;10501638;28;20331;-71
2023/11/09 22:20:00;;;;;;;8.48;5.18;;;;;;;;;;10501833;28;20223;-72
2023/11/09 22:25:02;;;;;;;5.35;4.25;;;;;;;;;;10473600;28;20083;-69
2023/11/09 22:30:02;;;;;;;9.32;5.25;;;;;;;;;;10489974;28;20257;-70
2023/11/09 22:35:04;;;;;;;6.82;5.05;;;;;;;;;;10499271;28;20054;-71
2023/11/09 22:40:05;;;;;;;10.85;4.85;;;;;;;;;;10479984;28;20045;-71
2023/11/09 22:45:05;;;;;;;7.88;4.93;;;;;;;;;;10504082;28;20095;-71
2023/11/09 22:50:06;;;;;;;6.93;4.68;;;;;;;;;;10500574;28;20032;-71
2023/11/09 22:55:08;;;;;;;9.80;4.53;;;;;;;;;;10500414;28;20044;-71
2023/11/09 23:00:24;;;;;;;8.93;4.63;;;;;;;;;;10482887;28;20032;-69
2023/11/09 23:05:26;;;;;;;10.13;5.78;;;;;;;;;;10484597;28;20487;-70
2023/11/09 23:10:28;;;;;;;7.55;4.63;;;;;;;;;;10500032;28;20096;-70
2023/11/09 23:15:28;;;;;;;8.65;5.05;;;;;;;;;;10494045;28;20078;-70
2023/11/09 23:20:28;;;;;;;10.67;5.07;;;;;;;;;;10499940;28;20036;-71
2023/11/09 23:25:29;;;;;;;9.25;5.70;;;;;;;;;;10499834;28;20549;-72
2023/11/09 23:30:29;;;;;;;13.63;6.33;;;;;;;;;;10480859;28;20105;-70
2023/11/09 23:35:29;;;;;;;10.57;5.97;;;;;;;;;;10499307;28;20266;-71
2023/11/09 23:40:30;;;;;;;11.95;6.32;;;;;;;;;;10499393;28;20020;-70
2023/11/09 23:45:30;;;;;;;11.55;5.93;;;;;;;;;;10481345;28;20035;-71
2023/11/09 23:50:30;;;;;;;9.63;5.93;;;;;;;;;;10481234;28;20047;-70
2023/11/09 23:55:30;;;;;;;11.25;5.40;;;;;;;;;;10499110;28;20024;-71
